Time;durP1;ratioP1;P1;durP2;ratioP2;P2;SDS_P1;SDS_P2;PMS_P1;PMS_P2;Temp;Humidity;BMP_temperature;BMP_pressure;BME280_temperature;BME280_humidity;BME280_pressure;Samples;Min_cycle;Max_cycle;Signal;HPM_P1;HPM_P2
2021/04/17 08:47:59;;;;;;;8.43;2.20;;;9.70;65.50;;;;;;5839401;23;20027;-67
2021/04/17 08:50:33;;;;;;;7.35;2.30;;;9.80;65.80;;;;;;4894088;29;20040;-66
2021/04/17 08:53:11;;;;;;;8.30;2.20;;;9.90;64.80;;;;;;4882835;29;20038;-66
2021/04/17 08:55:36;;;;;;;8.38;2.60;;;10.00;63.00;;;;;;4894758;29;20568;-71
2021/04/17 08:58:25;;;;;;;3.72;2.15;;;10.10;63.50;;;;;;4896715;29;20027;-71
2021/04/17 09:00:50;;;;;;;5.63;2.42;;;10.30;63.60;;;;;;4896677;29;20116;-70
2021/04/17 09:03:40;;;;;;;4.50;2.20;;;10.40;61.30;;;;;;4896084;29;20636;-70
2021/04/17 09:06:08;;;;;;;7.03;2.20;;;10.50;59.70;;;;;;4895598;29;20088;-70
2021/04/17 09:08:37;;;;;;;5.07;2.30;;;10.60;58.80;;;;;;4895694;29;20025;-69
2021/04/17 09:11:33;;;;;;;4.65;2.15;;;10.60;59.70;;;;;;4896149;29;20391;-71
2021/04/17 09:13:59;;;;;;;4.95;2.40;;;10.70;59.30;;;;;;4897422;29;20033;-69
2021/04/17 09:16:40;;;;;;;4.25;2.45;;;10.70;58.70;;;;;;4897744;29;20028;-69
2021/04/17 09:19:06;;;;;;;5.05;2.08;;;10.70;56.10;;;;;;4896253;29;20088;-69
2021/04/17 09:21:33;;;;;;;6.13;2.50;;;10.70;56.80;;;;;;4912051;29;20040;-69
2021/04/17 09:23:59;;;;;;;5.97;2.42;;;10.80;56.70;;;;;;4897141;29;20040;-69
2021/04/17 09:26:31;;;;;;;5.57;3.00;;;10.80;55.90;;;;;;4896879;29;20040;-68
2021/04/17 09:29:01;;;;;;;5.55;2.22;;;10.90;56.20;;;;;;4896387;29;20067;-69
2021/04/17 09:31:27;;;;;;;4.50;2.13;;;11.10;55.80;;;;;;4897022;29;20032;-68
2021/04/17 09:34:08;;;;;;;3.00;2.28;;;11.20;54.70;;;;;;4896727;29;20032;-69
2021/04/17 09:36:34;;;;;;;4.63;2.28;;;11.20;53.80;;;;;;4896193;29;20043;-69
2021/04/17 09:39:00;;;;;;;4.80;2.42;;;11.30;52.10;;;;;;4895534;29;20488;-70
2021/04/17 09:41:45;;;;;;;8.77;2.53;;;11.40;52.80;;;;;;4896926;29;20510;-68
2021/04/17 09:44:12;;;;;;;4.05;2.50;;;11.50;53.30;;;;;;4896407;29;20670;-68
2021/04/17 09:46:38;;;;;;;4.53;2.20;;;11.50;51.90;;;;;;4896945;29;20021;-69
2021/04/17 09:49:03;;;;;;;7.93;2.65;;;11.50;50.40;;;;;;4895928;29;20057;-68
2021/04/17 09:51:29;;;;;;;5.20;2.72;;;11.60;51.40;;;;;;4897470;29;20470;-69
2021/04/17 09:54:04;;;;;;;8.30;2.50;;;11.70;52.30;;;;;;4896358;29;20104;-69
2021/04/17 09:56:40;;;;;;;7.45;3.55;;;11.90;52.60;;;;;;4897293;29;20040;-69
2021/04/17 09:59:15;;;;;;;5.78;3.08;;;12.00;51.80;;;;;;4896421;29;20124;-69
2021/04/17 10:01:54;;;;;;;9.75;3.33;;;12.20;52.20;;;;;;4897342;29;20041;-69
2021/04/17 10:04:20;;;;;;;5.18;2.80;;;12.30;51.90;;;;;;4896074;29;20032;-68
2021/04/17 10:06:55;;;;;;;4.82;2.58;;;12.30;50.70;;;;;;4896101;29;20589;-68
2021/04/17 10:09:21;;;;;;;6.82;2.90;;;12.30;52.00;;;;;;4895842;29;20053;-68
2021/04/17 10:11:47;;;;;;;4.55;2.70;;;12.40;52.40;;;;;;4895146;29;20366;-69
2021/04/17 10:14:15;;;;;;;8.32;3.17;;;12.50;53.30;;;;;;4896523;29;20029;-69
2021/04/17 10:16:45;;;;;;;10.00;3.20;;;12.60;53.20;;;;;;4896952;29;20025;-69
2021/04/17 10:19:16;;;;;;;8.45;3.22;;;12.80;53.10;;;;;;4895367;29;20590;-68
2021/04/17 10:21:46;;;;;;;6.70;3.20;;;12.80;53.00;;;;;;4895827;29;20033;-69
2021/04/17 10:24:30;;;;;;;6.35;3.10;;;12.90;53.70;;;;;;4896675;29;20528;-69
2021/04/17 10:27:06;;;;;;;6.80;2.97;;;12.90;53.90;;;;;;4895096;29;20377;-69
2021/04/17 10:29:38;;;;;;;7.85;2.97;;;12.90;53.60;;;;;;4896521;29;20032;-69
2021/04/17 10:32:06;;;;;;;6.75;3.47;;;13.00;52.30;;;;;;4896706;29;20070;-70
2021/04/17 10:34:33;;;;;;;10.73;3.30;;;12.90;52.90;;;;;;4896078;29;20052;-69
2021/04/17 10:37:08;;;;;;;6.80;2.83;;;12.90;52.80;;;;;;4896170;29;20069;-69
2021/04/17 10:39:34;;;;;;;9.07;3.53;;;13.10;53.10;;;;;;4896542;29;20183;-68
2021/04/17 10:42:10;;;;;;;5.90;2.97;;;13.10;52.20;;;;;;4894550;29;20029;-69
2021/04/17 10:44:35;;;;;;;8.88;4.63;;;13.00;51.70;;;;;;4896734;29;20148;-69
2021/04/17 10:47:05;;;;;;;6.70;3.25;;;12.90;52.60;;;;;;4896196;29;20536;-70
2021/04/17 10:49:34;;;;;;;7.20;3.05;;;12.80;53.20;;;;;;4895445;29;20442;-68
2021/04/17 10:52:02;;;;;;;9.57;3.60;;;12.90;53.00;;;;;;4896108;29;20477;-69
2021/04/17 10:54:28;;;;;;;6.88;3.33;;;13.00;50.70;;;;;;4894578;29;20474;-69
2021/04/17 10:57:00;;;;;;;6.13;2.80;;;13.10;51.20;;;;;;4895349;29;20024;-69
2021/04/17 10:59:26;;;;;;;6.13;3.00;;;13.20;51.00;;;;;;4896181;29;20418;-69
2021/04/17 11:01:52;;;;;;;6.90;3.47;;;13.10;50.60;;;;;;4896109;29;20037;-69
2021/04/17 11:04:17;;;;;;;5.40;2.85;;;13.10;50.30;;;;;;4895691;29;20437;-69
2021/04/17 11:06:47;;;;;;;6.38;2.90;;;13.10;50.20;;;;;;4896402;29;20136;-68
2021/04/17 11:09:16;;;;;;;6.00;3.13;;;13.10;50.80;;;;;;4895755;29;20031;-67
2021/04/17 11:12:00;;;;;;;7.95;3.05;;;13.10;50.90;;;;;;4896800;29;20381;-69
2021/04/17 11:14:27;;;;;;;6.38;3.00;;;13.00;48.40;;;;;;4896471;29;20033;-69
2021/04/17 11:16:54;;;;;;;6.90;3.40;;;12.70;49.00;;;;;;4895182;29;20020;-68
2021/04/17 11:19:26;;;;;;;6.25;2.78;;;12.50;49.90;;;;;;4896104;29;20495;-69
2021/04/17 11:22:07;;;;;;;;;;;12.40;50.80;;;;;;4896280;29;20037;-68
2021/04/17 11:24:33;;;;;;;8.20;3.78;;;12.50;51.30;;;;;;4895421;29;19946;-69
2021/04/17 11:26:59;;;;;;;8.40;3.50;;;12.50;51.10;;;;;;4894562;29;20445;-68
2021/04/17 11:29:24;;;;;;;9.15;3.58;;;12.60;51.60;;;;;;4894673;29;20033;-68
2021/04/17 11:31:50;;;;;;;4.40;2.75;;;12.80;51.90;;;;;;4895528;29;20029;-68
2021/04/17 11:34:17;;;;;;;16.30;6.45;;;13.00;51.80;;;;;;4895643;29;20064;-69
2021/04/17 11:36:43;;;;;;;12.80;4.57;;;13.20;51.80;;;;;;4899956;29;20149;-69
2021/04/17 11:39:09;;;;;;;5.72;3.40;;;13.30;51.50;;;;;;4897801;29;20055;-68
2021/04/17 11:41:35;;;;;;;7.75;3.70;;;13.40;50.40;;;;;;4899419;29;20079;-69
2021/04/17 11:44:00;;;;;;;6.15;3.33;;;13.30;49.60;;;;;;4898295;29;20021;-68
2021/04/17 11:46:26;;;;;;;7.70;3.75;;;13.40;49.10;;;;;;4899081;29;20040;-69
2021/04/17 11:48:53;;;;;;;7.40;3.28;;;13.60;49.80;;;;;;4899055;29;20032;-68
2021/04/17 11:51:20;;;;;;;7.72;3.58;;;13.80;50.30;;;;;;4898986;29;20085;-70
2021/04/17 11:53:46;;;;;;;9.15;3.58;;;13.90;49.40;;;;;;4897955;29;20478;-69
2021/04/17 11:56:12;;;;;;;7.47;3.50;;;13.90;48.60;;;;;;4899581;29;20052;-69
2021/04/17 11:58:38;;;;;;;6.35;3.28;;;13.60;49.30;;;;;;4898881;29;20029;-69
2021/04/17 12:01:04;;;;;;;8.45;3.00;;;13.60;49.40;;;;;;4898978;29;20394;-69
2021/04/17 12:03:29;;;;;;;5.35;2.75;;;13.50;48.90;;;;;;4899383;29;20103;-69
2021/04/17 12:05:56;;;;;;;9.73;3.13;;;13.40;50.00;;;;;;4897071;29;20084;-69
2021/04/17 12:08:23;;;;;;;5.50;3.13;;;13.40;50.90;;;;;;4898058;29;20029;-69
2021/04/17 12:10:49;;;;;;;6.40;3.13;;;13.40;51.10;;;;;;4898919;29;20084;-69
2021/04/17 12:13:15;;;;;;;6.68;2.90;;;13.50;48.80;;;;;;4898652;29;20016;-69
2021/04/17 12:15:41;;;;;;;7.72;3.03;;;13.60;48.50;;;;;;4897854;29;20432;-69
2021/04/17 12:18:10;;;;;;;9.52;2.88;;;13.60;47.50;;;;;;4898804;29;20036;-68
2021/04/17 12:20:36;;;;;;;7.78;2.88;;;13.60;48.00;;;;;;4898518;29;20071;-68
2021/04/17 12:23:02;;;;;;;6.18;3.20;;;13.50;48.40;;;;;;4898940;29;20130;-69
2021/04/17 12:25:28;;;;;;;8.68;3.28;;;13.60;49.10;;;;;;4898926;29;20037;-68
2021/04/17 12:27:54;;;;;;;11.50;3.70;;;13.70;49.00;;;;;;4897997;29;20027;-69
2021/04/17 12:30:21;;;;;;;7.15;3.55;;;13.80;48.70;;;;;;4898831;29;20438;-69
2021/04/17 12:32:46;;;;;;;7.30;3.25;;;13.70;48.90;;;;;;4898619;29;20068;-68
2021/04/17 12:35:14;;;;;;;7.80;3.00;;;13.60;49.80;;;;;;4898254;29;20025;-68
2021/04/17 12:37:40;;;;;;;7.43;3.88;;;13.50;51.00;;;;;;4898706;29;20025;-69
2021/04/17 12:40:08;;;;;;;6.95;3.08;;;13.50;50.50;;;;;;4898441;29;20176;-68
2021/04/17 12:42:33;;;;;;;8.00;3.50;;;13.70;51.00;;;;;;4896829;29;20119;-67
2021/04/17 12:44:59;;;;;;;7.45;3.50;;;14.00;50.90;;;;;;4897834;29;20485;-68
2021/04/17 12:47:25;;;;;;;7.43;3.30;;;14.30;50.40;;;;;;4898687;29;20444;-69
2021/04/17 12:49:51;;;;;;;9.45;3.08;;;14.40;49.10;;;;;;4897538;29;20063;-68
2021/04/17 12:52:16;;;;;;;7.82;3.10;;;14.30;48.10;;;;;;4898587;29;20036;-69
2021/04/17 12:54:42;;;;;;;8.13;3.20;;;14.20;48.80;;;;;;4897700;29;20036;-68
2021/04/17 12:57:07;;;;;;;8.38;3.17;;;14.00;48.60;;;;;;4897950;29;20025;-67
2021/04/17 12:59:33;;;;;;;5.60;3.13;;;14.00;49.30;;;;;;4898293;29;20033;-68
2021/04/17 13:01:58;;;;;;;5.32;3.30;;;14.20;49.70;;;;;;4897436;29;20044;-68
2021/04/17 13:04:25;;;;;;;6.38;3.60;;;14.40;49.00;;;;;;4898296;29;20095;-68
2021/04/17 13:06:51;;;;;;;11.02;3.60;;;14.40;48.80;;;;;;4897951;29;20507;-67
2021/04/17 13:09:16;;;;;;;6.97;3.90;;;14.20;48.00;;;;;;4897434;29;20025;-67
2021/04/17 13:11:42;;;;;;;7.68;3.28;;;14.10;47.90;;;;;;4898157;29;20056;-68
2021/04/17 13:14:08;;;;;;;9.27;4.00;;;14.00;48.90;;;;;;4897845;29;20032;-68
2021/04/17 13:16:33;;;;;;;8.90;3.13;;;14.10;48.90;;;;;;4897211;29;20056;-68
2021/04/17 13:18:59;;;;;;;8.50;3.55;;;14.30;49.40;;;;;;4897876;29;20039;-68
2021/04/17 13:21:24;;;;;;;9.07;3.67;;;14.60;49.20;;;;;;4898342;29;20033;-69
2021/04/17 13:23:50;;;;;;;8.27;3.30;;;14.70;49.00;;;;;;4897462;29;20028;-69
2021/04/17 13:26:17;;;;;;;8.02;2.75;;;14.80;47.80;;;;;;4896589;29;20106;-67
2021/04/17 13:28:45;;;;;;;6.50;3.30;;;14.70;47.90;;;;;;4897883;29;20096;-67
2021/04/17 13:31:10;;;;;;;5.95;3.00;;;14.60;47.20;;;;;;4897096;29;20068;-67
2021/04/17 13:33:36;;;;;;;8.95;3.20;;;14.60;47.60;;;;;;4897774;29;20032;-68
2021/04/17 13:36:03;;;;;;;7.45;3.10;;;14.60;48.00;;;;;;4897605;29;20107;-68
2021/04/17 13:38:29;;;;;;;6.68;3.60;;;14.70;48.20;;;;;;4892778;29;20032;-67
2021/04/17 13:40:55;;;;;;;8.90;3.10;;;14.90;47.50;;;;;;4893667;29;20052;-69
2021/04/17 13:43:21;;;;;;;6.68;3.50;;;15.10;47.20;;;;;;4892707;29;20417;-68
2021/04/17 13:45:46;;;;;;;6.80;3.45;;;15.20;46.90;;;;;;4893486;29;20041;-68
2021/04/17 13:48:12;;;;;;;7.43;3.05;;;15.20;47.20;;;;;;4892255;29;20056;-67
2021/04/17 13:50:38;;;;;;;7.95;3.42;;;15.00;46.60;;;;;;4892201;29;20047;-68
2021/04/17 13:53:03;;;;;;;10.05;3.42;;;14.90;47.90;;;;;;4891852;29;20029;-68
2021/04/17 13:55:29;;;;;;;10.18;4.25;;;14.90;47.30;;;;;;4894212;29;20043;-68
2021/04/17 13:57:54;;;;;;;8.10;3.83;;;14.80;47.90;;;;;;4892073;29;20067;-68
2021/04/17 14:00:20;;;;;;;6.55;3.22;;;14.90;47.20;;;;;;4891455;29;20413;-68
2021/04/17 14:02:46;;;;;;;5.75;3.33;;;14.90;47.20;;;;;;4884501;29;20021;-68
2021/04/17 14:05:12;;;;;;;7.53;3.05;;;15.00;47.70;;;;;;4891045;29;20036;-68
2021/04/17 14:07:37;;;;;;;6.70;3.53;;;15.00;48.10;;;;;;4892744;29;20096;-68
2021/04/17 14:10:05;;;;;;;7.00;3.10;;;15.10;47.60;;;;;;4891740;29;20493;-68
2021/04/17 14:12:30;;;;;;;6.70;3.15;;;15.20;47.70;;;;;;4892847;29;20508;-68
2021/04/17 14:14:56;;;;;;;6.70;3.28;;;15.20;47.90;;;;;;4893674;29;20032;-71
2021/04/17 14:17:22;;;;;;;6.90;3.70;;;15.10;48.00;;;;;;4893845;29;20028;-70
2021/04/17 14:19:47;;;;;;;7.95;3.42;;;15.00;48.20;;;;;;4892620;29;20040;-69
2021/04/17 14:22:13;;;;;;;6.03;3.53;;;14.90;48.30;;;;;;4892118;29;20446;-69
2021/04/17 14:24:38;;;;;;;8.80;2.88;;;14.80;47.20;;;;;;4893735;29;20028;-70
2021/04/17 14:27:04;;;;;;;5.45;2.83;;;14.60;47.40;;;;;;4891407;29;20028;-69
2021/04/17 14:29:30;;;;;;;6.35;3.22;;;14.60;47.80;;;;;;4892960;29;20029;-69
2021/04/17 14:31:56;;;;;;;7.40;3.40;;;14.50;47.60;;;;;;4893473;29;20713;-70
2021/04/17 14:34:21;;;;;;;5.90;3.38;;;14.40;47.50;;;;;;4892835;29;20111;-70
2021/04/17 14:36:47;;;;;;;6.90;3.10;;;14.40;47.40;;;;;;4892796;29;20029;-69
2021/04/17 14:39:13;;;;;;;6.72;2.88;;;14.20;47.00;;;;;;4892761;29;20503;-70
2021/04/17 14:41:38;;;;;;;9.40;3.63;;;14.10;47.00;;;;;;4892822;29;20485;-69
2021/04/17 14:44:11;;;;;;;8.15;3.08;;;14.00;48.30;;;;;;4892877;29;20040;-71
2021/04/17 14:46:44;;;;;;;5.97;2.88;;;14.00;49.10;;;;;;4893437;29;20119;-71
2021/04/17 14:49:14;;;;;;;6.32;3.25;;;14.10;49.60;;;;;;4892603;29;20056;-69
2021/04/17 14:51:40;;;;;;;5.30;3.00;;;14.20;49.30;;;;;;4892049;29;20031;-70
2021/04/17 14:54:07;;;;;;;4.93;2.75;;;14.30;49.50;;;;;;4891355;29;20036;-70
2021/04/17 14:56:33;;;;;;;5.22;3.15;;;14.40;49.70;;;;;;4892286;29;20028;-68
2021/04/17 14:58:59;;;;;;;7.60;3.58;;;14.60;48.40;;;;;;4894998;29;20039;-69
2021/04/17 15:01:26;;;;;;;5.53;2.90;;;14.70;47.50;;;;;;4893928;29;20040;-68
2021/04/17 15:03:52;;;;;;;6.63;3.15;;;14.80;47.50;;;;;;4894696;29;20028;-68
2021/04/17 15:06:18;;;;;;;6.35;3.30;;;15.00;47.80;;;;;;4896517;29;20032;-68
2021/04/17 15:08:43;;;;;;;7.38;3.22;;;15.20;47.30;;;;;;4893864;29;20029;-68
2021/04/17 15:11:09;;;;;;;6.95;3.55;;;15.40;46.10;;;;;;4896028;29;20024;-69
2021/04/17 15:13:35;;;;;;;10.20;3.50;;;15.40;46.00;;;;;;4896161;29;20033;-68
2021/04/17 15:16:02;;;;;;;5.50;3.40;;;15.30;45.70;;;;;;4895431;29;20473;-69
2021/04/17 15:18:29;;;;;;;6.93;3.38;;;15.30;46.60;;;;;;4894638;29;20107;-69
2021/04/17 15:20:55;;;;;;;7.05;2.92;;;15.30;46.20;;;;;;4894268;29;20115;-66
2021/04/17 15:23:22;;;;;;;6.07;3.42;;;15.30;46.60;;;;;;4895734;29;20029;-67
2021/04/17 15:25:49;;;;;;;5.55;2.70;;;15.50;46.10;;;;;;4894409;29;20481;-70
2021/04/17 15:28:24;;;;;;;6.38;3.05;;;15.40;46.90;;;;;;4894648;29;20028;-68
2021/04/17 15:30:50;;;;;;;5.35;2.67;;;15.20;46.30;;;;;;4894808;29;20493;-68
2021/04/17 15:33:20;;;;;;;5.05;2.83;;;15.00;46.50;;;;;;4891862;29;20033;-70
2021/04/17 15:35:50;;;;;;;8.27;2.90;;;14.80;47.10;;;;;;4890135;29;20029;-67
2021/04/17 15:38:17;;;;;;;9.00;3.50;;;14.60;47.60;;;;;;4891296;29;20032;-67
2021/04/17 15:40:44;;;;;;;6.30;3.33;;;14.30;47.20;;;;;;4892536;29;20072;-68
2021/04/17 15:43:10;;;;;;;5.13;3.08;;;14.20;47.50;;;;;;4893331;29;20501;-66
2021/04/17 15:45:37;;;;;;;5.80;3.38;;;14.10;47.80;;;;;;4892035;29;20053;-68
2021/04/17 15:48:04;;;;;;;6.22;2.83;;;14.30;48.30;;;;;;4890013;29;20954;-69
2021/04/17 15:50:31;;;;;;;7.47;3.35;;;14.50;48.40;;;;;;4887849;29;20048;-71
2021/04/17 15:53:07;;;;;;;7.88;3.60;;;14.60;47.10;;;;;;4892372;29;20147;-69
2021/04/17 15:55:34;;;;;;;9.63;3.83;;;14.70;47.50;;;;;;4906904;29;20027;-66
2021/04/17 16:16:16;;;;;;;6.55;3.30;;;14.40;48.00;;;;;;4892230;29;20100;-69
2021/04/17 16:18:41;;;;;;;9.05;3.42;;;14.20;48.80;;;;;;4892874;29;20033;-68
2021/04/17 16:21:07;;;;;;;6.00;2.92;;;14.20;48.90;;;;;;4897425;29;20045;-70
2021/04/17 16:23:32;;;;;;;9.80;3.60;;;14.10;48.20;;;;;;4898954;29;20076;-69
2021/04/17 16:25:58;;;;;;;9.68;3.70;;;14.10;48.50;;;;;;4897506;29;20366;-68
2021/04/17 16:28:27;;;;;;;7.10;3.08;;;14.20;48.20;;;;;;4898724;29;20362;-70
2021/04/17 16:30:53;;;;;;;7.40;2.80;;;14.40;49.00;;;;;;4898001;29;20330;-68
2021/04/17 16:33:18;;;;;;;6.95;2.60;;;14.90;47.30;;;;;;4897564;29;20449;-69
2021/04/17 16:35:44;;;;;;;7.40;2.65;;;15.50;47.40;;;;;;4898073;29;20072;-70
2021/04/17 16:38:09;;;;;;;5.38;3.10;;;16.10;45.50;;;;;;4898495;29;20055;-69
2021/04/17 16:40:35;;;;;;;10.13;3.42;;;16.50;44.20;;;;;;4897625;29;20045;-71
2021/04/17 16:43:00;;;;;;;5.40;2.83;;;16.70;43.70;;;;;;4897847;29;20028;-70
2021/04/17 16:45:26;;;;;;;7.70;3.25;;;16.80;43.20;;;;;;4898532;29;20032;-70
2021/04/17 16:47:52;;;;;;;5.47;3.13;;;16.90;43.00;;;;;;4897710;29;20375;-71
2021/04/17 16:50:19;;;;;;;7.82;3.20;;;16.90;42.80;;;;;;4897004;29;20041;-70
2021/04/17 16:52:44;;;;;;;6.53;2.75;;;16.80;42.60;;;;;;4898357;29;20498;-71
2021/04/17 16:55:12;;;;;;;9.02;3.00;;;16.80;42.90;;;;;;4897672;29;20115;-71
2021/04/17 16:57:37;;;;;;;5.60;2.55;;;16.80;42.80;;;;;;4897961;29;20040;-68
2021/04/17 17:00:05;;;;;;;5.20;2.83;;;16.70;43.20;;;;;;4896737;29;20445;-70
2021/04/17 17:02:31;;;;;;;6.85;2.83;;;16.50;42.80;;;;;;4896585;29;20492;-69
2021/04/17 17:04:57;;;;;;;6.85;3.22;;;16.20;43.20;;;;;;4895731;29;20036;-67
2021/04/17 17:07:22;;;;;;;6.45;3.53;;;16.00;43.60;;;;;;4898252;29;20021;-68
2021/04/17 17:09:48;;;;;;;8.23;3.25;;;15.90;44.90;;;;;;4896379;29;20075;-67
2021/04/17 17:12:13;;;;;;;5.50;2.90;;;15.90;46.60;;;;;;4897402;29;20031;-67
2021/04/17 17:14:39;;;;;;;8.32;3.13;;;16.00;47.20;;;;;;4898037;29;20060;-68
2021/04/17 17:17:05;;;;;;;6.65;3.00;;;16.10;47.20;;;;;;4896939;29;20040;-69
2021/04/17 17:19:30;;;;;;;9.13;3.53;;;15.90;48.00;;;;;;4893260;29;20108;-71
2021/04/17 17:21:56;;;;;;;10.00;3.50;;;15.70;49.00;;;;;;4886464;29;20493;-68
2021/04/17 17:24:21;;;;;;;8.40;3.78;;;15.60;49.50;;;;;;4897735;29;20032;-68
2021/04/17 17:26:47;;;;;;;6.60;2.97;;;15.40;49.70;;;;;;4897686;29;20474;-70
2021/04/17 17:29:13;;;;;;;8.27;2.67;;;15.30;50.00;;;;;;4896676;29;20623;-71
2021/04/17 17:31:38;;;;;;;6.28;2.95;;;14.90;51.00;;;;;;4897693;29;20104;-70
2021/04/17 17:34:04;;;;;;;7.05;3.10;;;14.50;51.60;;;;;;4895847;29;20350;-71
2021/04/17 17:36:31;;;;;;;8.25;3.22;;;14.10;52.60;;;;;;4897329;29;20266;-71
2021/04/17 17:38:57;;;;;;;7.15;3.08;;;13.70;53.90;;;;;;4897595;29;20039;-72
2021/04/17 17:41:23;;;;;;;7.32;3.63;;;13.30;55.10;;;;;;4897533;29;20059;-70
2021/04/17 17:43:49;;;;;;;6.25;2.90;;;13.00;55.70;;;;;;4895352;29;20017;-70
2021/04/17 17:46:15;;;;;;;12.45;4.03;;;12.70;56.70;;;;;;4897150;29;20037;-69
2021/04/17 17:48:40;;;;;;;8.43;4.15;;;12.50;57.50;;;;;;4897017;29;20036;-68
2021/04/17 17:51:06;;;;;;;6.50;3.28;;;12.40;57.90;;;;;;4894665;29;20036;-69
2021/04/17 17:53:32;;;;;;;8.30;3.65;;;12.20;58.00;;;;;;4897203;29;20107;-68
2021/04/17 17:55:57;;;;;;;10.27;3.40;;;12.10;58.30;;;;;;4896694;29;20108;-68
2021/04/17 17:58:26;;;;;;;5.72;2.85;;;12.00;59.10;;;;;;4896867;29;20110;-68
2021/04/17 18:00:52;;;;;;;7.55;3.60;;;11.90;59.50;;;;;;4896502;29;20127;-70
2021/04/17 18:03:17;;;;;;;8.52;3.50;;;11.80;60.00;;;;;;4897512;29;20477;-69
2021/04/17 18:05:43;;;;;;;7.13;3.30;;;11.60;60.30;;;;;;4896651;29;20040;-69
2021/04/17 18:08:10;;;;;;;7.53;2.83;;;11.50;60.90;;;;;;4897185;29;20377;-68
2021/04/17 18:10:36;;;;;;;8.55;3.33;;;11.40;61.30;;;;;;4897040;29;20032;-68
2021/04/17 18:13:01;;;;;;;7.28;3.45;;;11.30;61.70;;;;;;4896179;29;20477;-67
2021/04/17 18:15:27;;;;;;;5.35;2.80;;;11.20;62.10;;;;;;4896885;29;20035;-68
2021/04/17 18:17:52;;;;;;;5.65;3.30;;;11.10;62.30;;;;;;4896759;29;20088;-68
2021/04/17 18:20:18;;;;;;;8.00;3.30;;;11.00;63.00;;;;;;4895100;29;20043;-69
2021/04/17 18:22:45;;;;;;;5.28;3.00;;;10.90;63.20;;;;;;4896824;29;20032;-68
2021/04/17 18:25:12;;;;;;;7.80;2.90;;;10.80;63.20;;;;;;4910727;29;20035;-71
2021/04/17 18:27:37;;;;;;;6.22;3.00;;;10.70;63.60;;;;;;4897241;29;20048;-72
2021/04/17 18:30:05;;;;;;;5.93;3.67;;;10.60;64.00;;;;;;4896261;29;20032;-70
2021/04/17 18:32:30;;;;;;;5.60;2.80;;;10.60;64.70;;;;;;4896209;29;20024;-72
2021/04/17 18:34:57;;;;;;;8.02;3.33;;;10.50;64.90;;;;;;4895265;29;20040;-72
2021/04/17 18:37:23;;;;;;;7.15;3.10;;;10.40;66.00;;;;;;4897102;29;20024;-71
2021/04/17 18:39:49;;;;;;;7.18;2.63;;;10.30;65.70;;;;;;4896013;29;20389;-70
2021/04/17 18:42:15;;;;;;;5.53;2.60;;;10.30;65.90;;;;;;4896465;29;20040;-69
2021/04/17 18:44:40;;;;;;;4.05;2.60;;;10.20;66.10;;;;;;4896285;29;20521;-68
2021/04/17 18:47:06;;;;;;;5.75;3.22;;;10.10;66.40;;;;;;4894613;29;20044;-67
2021/04/17 18:49:32;;;;;;;6.63;3.30;;;10.10;66.90;;;;;;4895868;29;20045;-70
2021/04/17 18:51:58;;;;;;;4.72;3.00;;;10.00;67.00;;;;;;4896341;29;20036;-70
2021/04/17 18:54:23;;;;;;;7.32;3.35;;;10.00;67.20;;;;;;4895445;29;20088;-67
2021/04/17 18:56:50;;;;;;;9.68;4.45;;;9.90;68.00;;;;;;4894870;29;20029;-71
2021/04/17 18:59:16;;;;;;;5.25;3.40;;;9.80;68.10;;;;;;4896124;29;20112;-74
2021/04/17 19:01:41;;;;;;;7.03;3.15;;;9.80;68.20;;;;;;4895927;29;20064;-65
2021/04/17 19:04:07;;;;;;;6.30;3.13;;;9.70;68.40;;;;;;4896203;29;20029;-70
2021/04/17 19:06:33;;;;;;;7.53;3.10;;;9.70;68.80;;;;;;4896312;29;20077;-65
2021/04/17 19:08:59;;;;;;;5.78;3.15;;;9.60;69.10;;;;;;4895446;29;20033;-63
2021/04/17 19:11:25;;;;;;;9.77;3.90;;;9.50;69.50;;;;;;4896086;29;20036;-67
2021/04/17 19:13:51;;;;;;;8.23;3.40;;;9.50;69.60;;;;;;4895376;29;20533;-67
2021/04/17 19:16:20;;;;;;;6.53;3.15;;;9.40;69.90;;;;;;4895628;29;20044;-65
2021/04/17 19:18:47;;;;;;;6.32;3.10;;;9.40;70.10;;;;;;4895448;29;20024;-65
2021/04/17 19:21:13;;;;;;;8.70;3.65;;;9.40;70.50;;;;;;4894305;29;20120;-67
2021/04/17 19:23:39;;;;;;;6.63;3.10;;;9.30;70.60;;;;;;4895706;29;20164;-68
2021/04/17 19:26:04;;;;;;;5.80;2.88;;;9.30;70.80;;;;;;4894271;29;20788;-67
2021/04/17 19:28:31;;;;;;;6.47;3.92;;;9.20;70.90;;;;;;4894928;29;20254;-66
2021/04/17 19:30:57;;;;;;;7.18;3.88;;;9.20;71.00;;;;;;4895715;29;20036;-65
2021/04/17 19:33:22;;;;;;;7.40;3.10;;;9.10;71.30;;;;;;4910725;29;20046;-65
2021/04/17 19:35:48;;;;;;;5.70;2.70;;;9.10;71.20;;;;;;4895294;29;20033;-67
2021/04/17 19:38:15;;;;;;;5.97;2.83;;;9.10;71.20;;;;;;4896144;29;20041;-66
2021/04/17 19:40:41;;;;;;;6.93;2.90;;;9.00;71.20;;;;;;4895580;29;20031;-67
2021/04/17 19:43:06;;;;;;;6.55;3.42;;;9.00;71.20;;;;;;4895179;29;20103;-66
2021/04/17 19:45:32;;;;;;;5.75;2.83;;;8.90;70.90;;;;;;4895929;29;20029;-68
2021/04/17 19:47:58;;;;;;;7.00;3.20;;;8.90;70.60;;;;;;4894394;29;20449;-66
2021/04/17 19:50:25;;;;;;;7.00;3.25;;;8.90;70.50;;;;;;4893798;29;20075;-65
2021/04/17 19:52:50;;;;;;;8.65;3.30;;;8.80;70.20;;;;;;4895278;29;20032;-66
2021/04/17 19:55:16;;;;;;;5.50;3.05;;;8.80;70.10;;;;;;4896527;29;20024;-66
2021/04/17 19:57:42;;;;;;;7.78;4.10;;;8.70;70.70;;;;;;4898648;29;20050;-66
2021/04/17 20:00:13;;;;;;;10.52;3.15;;;8.70;70.20;;;;;;4897213;29;20036;-66
2021/04/17 20:02:39;;;;;;;5.30;3.22;;;8.70;70.20;;;;;;4899399;29;20063;-66
2021/04/17 20:05:06;;;;;;;8.07;3.50;;;8.70;70.30;;;;;;4897112;29;20068;-69
2021/04/17 20:07:33;;;;;;;9.13;3.40;;;8.70;70.30;;;;;;4897828;29;20084;-64
2021/04/17 20:09:59;;;;;;;7.38;3.53;;;8.60;70.50;;;;;;4898941;29;20104;-64
2021/04/17 20:12:25;;;;;;;6.22;3.30;;;8.60;70.60;;;;;;4898181;29;20541;-65
2021/04/17 20:14:50;;;;;;;6.32;3.67;;;8.50;70.50;;;;;;4897667;29;20103;-66
2021/04/17 20:17:16;;;;;;;7.70;3.20;;;8.50;70.60;;;;;;4898975;29;20393;-67
2021/04/17 20:19:42;;;;;;;9.77;4.07;;;8.50;70.60;;;;;;4898119;29;20136;-64
2021/04/17 20:22:09;;;;;;;8.00;3.08;;;8.50;70.60;;;;;;4898613;29;20481;-64
2021/04/17 20:24:35;;;;;;;6.38;3.38;;;8.40;70.50;;;;;;4899058;29;20024;-66
2021/04/17 20:27:00;;;;;;;8.43;3.75;;;8.40;70.60;;;;;;4898151;29;20036;-67
2021/04/17 20:29:26;;;;;;;8.23;3.97;;;8.40;70.50;;;;;;4898747;29;20028;-68
2021/04/17 20:31:51;;;;;;;6.10;3.45;;;8.30;70.40;;;;;;4898156;29;20040;-67
2021/04/17 20:34:17;;;;;;;11.32;4.80;;;8.30;70.90;;;;;;4898760;29;20091;-65
2021/04/17 20:36:43;;;;;;;6.05;3.17;;;8.30;71.30;;;;;;4898991;29;20053;-68
2021/04/17 20:39:11;;;;;;;8.05;3.95;;;8.30;71.50;;;;;;4898019;29;20029;-69
2021/04/17 20:41:39;;;;;;;15.73;4.65;;;8.20;71.60;;;;;;4897373;29;20047;-69
2021/04/17 20:44:06;;;;;;;8.88;3.60;;;8.20;71.60;;;;;;4898163;29;20069;-68
2021/04/17 20:46:32;;;;;;;7.28;4.47;;;8.20;71.80;;;;;;4896721;29;20450;-70
2021/04/17 20:48:58;;;;;;;7.70;4.13;;;8.20;71.80;;;;;;4898499;29;20139;-73
2021/04/17 20:51:24;;;;;;;10.05;4.13;;;8.20;72.00;;;;;;4897916;29;20107;-69
2021/04/17 20:53:50;;;;;;;6.00;3.78;;;8.10;72.40;;;;;;4896047;29;20027;-69
2021/04/17 20:56:17;;;;;;;7.00;4.00;;;8.10;72.80;;;;;;4898377;29;20112;-68
2021/04/17 20:58:42;;;;;;;9.32;4.43;;;8.10;73.00;;;;;;4897253;29;20025;-68
2021/04/17 21:01:08;;;;;;;6.32;3.45;;;8.00;72.80;;;;;;4897279;29;20508;-70
2021/04/17 21:03:33;;;;;;;8.20;3.70;;;8.00;73.20;;;;;;4897999;29;20029;-66
2021/04/17 21:05:59;;;;;;;6.57;3.28;;;8.00;73.80;;;;;;4912243;29;20389;-71
2021/04/17 21:08:25;;;;;;;8.68;4.22;;;8.00;73.70;;;;;;4897642;29;20474;-68
2021/04/17 21:10:50;;;;;;;10.45;5.00;;;7.90;73.70;;;;;;4897936;29;20492;-67
2021/04/17 21:13:16;;;;;;;10.88;5.78;;;7.90;74.00;;;;;;4898125;29;20088;-69
2021/04/17 21:15:42;;;;;;;9.43;4.50;;;7.80;74.20;;;;;;4912041;29;20039;-68
2021/04/17 21:18:07;;;;;;;8.85;4.10;;;7.80;74.50;;;;;;4897395;29;20028;-70
2021/04/17 21:20:33;;;;;;;7.80;3.50;;;7.80;74.20;;;;;;4897790;29;20370;-66
2021/04/17 21:22:59;;;;;;;7.13;3.78;;;7.70;74.10;;;;;;4897214;29;20505;-71
2021/04/17 21:25:24;;;;;;;5.80;3.53;;;7.70;74.70;;;;;;4897992;29;20025;-68
2021/04/17 21:27:50;;;;;;;8.02;3.53;;;7.70;74.80;;;;;;4896395;29;20028;-69
2021/04/17 21:30:16;;;;;;;10.15;3.90;;;7.60;74.80;;;;;;4895709;29;20024;-67
2021/04/17 21:32:42;;;;;;;5.70;3.42;;;7.60;74.90;;;;;;4897492;29;20039;-69
2021/04/17 21:35:08;;;;;;;6.97;3.55;;;7.60;74.80;;;;;;4896993;29;20101;-68
2021/04/17 21:37:36;;;;;;;8.25;3.80;;;7.50;74.90;;;;;;4897622;29;20035;-68
2021/04/17 21:40:02;;;;;;;8.55;4.10;;;7.50;74.90;;;;;;4897389;29;20103;-71
2021/04/17 21:42:28;;;;;;;11.07;4.32;;;7.50;74.90;;;;;;4896581;29;20508;-68
2021/04/17 21:44:53;;;;;;;9.93;3.92;;;7.40;75.00;;;;;;4897123;29;20021;-66
2021/04/17 21:47:19;;;;;;;7.90;3.72;;;7.40;75.10;;;;;;4897692;29;20035;-65
2021/04/17 21:49:44;;;;;;;8.85;4.10;;;7.40;75.10;;;;;;4896366;29;20049;-66
2021/04/17 21:52:10;;;;;;;7.28;3.83;;;7.40;75.20;;;;;;4897488;29;20039;-68